sensor_id;sensor_type;location;lat;lon;timestamp;P1;durP1;ratioP1;P2;durP2;ratioP2
55368;SDS011;41247;49.736;8.752;2022-12-29T00:01:36;2.72;;;1.23;;
55368;SDS011;41247;49.736;8.752;2022-12-29T00:05:17;6.18;;;1.58;;
55368;SDS011;41247;49.736;8.752;2022-12-29T00:08:58;4.43;;;1.50;;
55368;SDS011;41247;49.736;8.752;2022-12-29T00:12:39;5.25;;;1.40;;
55368;SDS011;41247;49.736;8.752;2022-12-29T00:16:19;4.78;;;1.50;;
55368;SDS011;41247;49.736;8.752;2022-12-29T00:20:00;12.63;;;1.27;;
55368;SDS011;41247;49.736;8.752;2022-12-29T00:23:40;4.70;;;1.42;;
55368;SDS011;41247;49.736;8.752;2022-12-29T00:27:21;2.30;;;1.45;;
55368;SDS011;41247;49.736;8.752;2022-12-29T00:31:02;3.80;;;1.20;;
55368;SDS011;41247;49.736;8.752;2022-12-29T00:34:48;4.72;;;1.33;;
55368;SDS011;41247;49.736;8.752;2022-12-29T00:38:29;1.73;;;1.20;;
55368;SDS011;41247;49.736;8.752;2022-12-29T00:42:12;4.35;;;1.42;;
55368;SDS011;41247;49.736;8.752;2022-12-29T00:45:53;3.05;;;1.23;;
55368;SDS011;41247;49.736;8.752;2022-12-29T00:49:34;4.00;;;1.23;;
55368;SDS011;41247;49.736;8.752;2022-12-29T00:53:14;4.45;;;1.45;;
55368;SDS011;41247;49.736;8.752;2022-12-29T00:56:55;3.38;;;1.48;;
55368;SDS011;41247;49.736;8.752;2022-12-29T01:00:36;2.28;;;1.50;;
55368;SDS011;41247;49.736;8.752;2022-12-29T01:04:16;6.00;;;1.40;;
55368;SDS011;41247;49.736;8.752;2022-12-29T01:07:57;4.55;;;1.35;;
55368;SDS011;41247;49.736;8.752;2022-12-29T01:11:38;2.05;;;1.40;;
55368;SDS011;41247;49.736;8.752;2022-12-29T01:15:19;5.18;;;1.50;;
55368;SDS011;41247;49.736;8.752;2022-12-29T01:19:00;2.88;;;1.30;;
55368;SDS011;41247;49.736;8.752;2022-12-29T01:22:40;2.10;;;1.23;;
55368;SDS011;41247;49.736;8.752;2022-12-29T01:26:21;2.83;;;1.17;;
55368;SDS011;41247;49.736;8.752;2022-12-29T01:30:02;1.52;;;1.20;;
55368;SDS011;41247;49.736;8.752;2022-12-29T01:33:43;3.15;;;1.48;;
55368;SDS011;41247;49.736;8.752;2022-12-29T01:37:24;6.72;;;1.30;;
55368;SDS011;41247;49.736;8.752;2022-12-29T01:41:05;1.52;;;1.05;;
55368;SDS011;41247;49.736;8.752;2022-12-29T01:48:34;2.55;;;1.40;;
55368;SDS011;41247;49.736;8.752;2022-12-29T01:52:15;1.40;;;1.00;;
55368;SDS011;41247;49.736;8.752;2022-12-29T01:55:57;4.45;;;1.48;;
55368;SDS011;41247;49.736;8.752;2022-12-29T02:03:49;2.35;;;0.90;;
55368;SDS011;41247;49.736;8.752;2022-12-29T02:07:31;2.50;;;0.95;;
55368;SDS011;41247;49.736;8.752;2022-12-29T02:11:11;3.88;;;1.15;;
55368;SDS011;41247;49.736;8.752;2022-12-29T02:14:54;2.13;;;1.13;;
55368;SDS011;41247;49.736;8.752;2022-12-29T02:18:48;3.25;;;1.00;;
55368;SDS011;41247;49.736;8.752;2022-12-29T02:35:53;1.25;;;0.82;;
55368;SDS011;41247;49.736;8.752;2022-12-29T02:48:52;1.75;;;0.70;;
55368;SDS011;41247;49.736;8.752;2022-12-29T02:52:50;1.20;;;0.80;;
55368;SDS011;41247;49.736;8.752;2022-12-29T02:56:38;3.63;;;1.00;;
55368;SDS011;41247;49.736;8.752;2022-12-29T03:00:18;2.17;;;0.80;;
55368;SDS011;41247;49.736;8.752;2022-12-29T03:04:03;1.20;;;0.95;;
55368;SDS011;41247;49.736;8.752;2022-12-29T03:08:10;2.20;;;1.00;;
55368;SDS011;41247;49.736;8.752;2022-12-29T03:20:41;3.38;;;1.10;;
55368;SDS011;41247;49.736;8.752;2022-12-29T03:24:35;1.40;;;0.90;;
55368;SDS011;41247;49.736;8.752;2022-12-29T03:28:21;1.13;;;0.93;;
55368;SDS011;41247;49.736;8.752;2022-12-29T03:32:07;4.40;;;0.90;;
55368;SDS011;41247;49.736;8.752;2022-12-29T03:35:50;3.57;;;1.00;;
55368;SDS011;41247;49.736;8.752;2022-12-29T03:39:34;1.90;;;1.17;;
55368;SDS011;41247;49.736;8.752;2022-12-29T03:43:15;4.53;;;1.23;;
55368;SDS011;41247;49.736;8.752;2022-12-29T03:46:57;3.58;;;1.50;;
55368;SDS011;41247;49.736;8.752;2022-12-29T03:50:37;2.45;;;1.20;;
55368;SDS011;41247;49.736;8.752;2022-12-29T03:54:18;2.28;;;1.20;;
55368;SDS011;41247;49.736;8.752;2022-12-29T03:57:58;3.50;;;1.10;;
55368;SDS011;41247;49.736;8.752;2022-12-29T04:01:39;2.00;;;1.27;;
55368;SDS011;41247;49.736;8.752;2022-12-29T04:05:20;4.15;;;1.55;;
55368;SDS011;41247;49.736;8.752;2022-12-29T04:09:01;2.65;;;1.42;;
55368;SDS011;41247;49.736;8.752;2022-12-29T04:12:41;4.13;;;1.13;;
55368;SDS011;41247;49.736;8.752;2022-12-29T04:16:22;4.03;;;1.10;;
55368;SDS011;41247;49.736;8.752;2022-12-29T04:20:03;3.97;;;1.45;;
55368;SDS011;41247;49.736;8.752;2022-12-29T04:23:44;2.97;;;1.20;;
55368;SDS011;41247;49.736;8.752;2022-12-29T04:27:25;4.68;;;1.00;;
55368;SDS011;41247;49.736;8.752;2022-12-29T04:31:06;3.92;;;1.10;;
55368;SDS011;41247;49.736;8.752;2022-12-29T04:34:46;2.55;;;1.10;;
55368;SDS011;41247;49.736;8.752;2022-12-29T04:38:27;2.90;;;0.90;;
55368;SDS011;41247;49.736;8.752;2022-12-29T04:42:08;3.17;;;1.00;;
55368;SDS011;41247;49.736;8.752;2022-12-29T04:45:49;3.30;;;1.05;;
55368;SDS011;41247;49.736;8.752;2022-12-29T04:49:29;3.97;;;1.00;;
55368;SDS011;41247;49.736;8.752;2022-12-29T04:53:10;4.60;;;1.20;;
55368;SDS011;41247;49.736;8.752;2022-12-29T04:56:50;3.80;;;1.45;;
55368;SDS011;41247;49.736;8.752;2022-12-29T05:00:31;6.53;;;1.15;;
55368;SDS011;41247;49.736;8.752;2022-12-29T05:04:12;2.17;;;0.85;;
55368;SDS011;41247;49.736;8.752;2022-12-29T05:07:52;3.15;;;0.90;;
55368;SDS011;41247;49.736;8.752;2022-12-29T05:11:33;2.03;;;1.02;;
55368;SDS011;41247;49.736;8.752;2022-12-29T05:15:14;2.85;;;0.90;;
55368;SDS011;41247;49.736;8.752;2022-12-29T05:18:54;3.70;;;1.30;;
55368;SDS011;41247;49.736;8.752;2022-12-29T05:22:35;2.95;;;0.90;;
55368;SDS011;41247;49.736;8.752;2022-12-29T05:26:16;3.53;;;1.10;;
55368;SDS011;41247;49.736;8.752;2022-12-29T05:29:56;2.08;;;1.10;;
55368;SDS011;41247;49.736;8.752;2022-12-29T05:33:37;4.47;;;1.20;;
55368;SDS011;41247;49.736;8.752;2022-12-29T05:37:18;4.75;;;1.17;;
55368;SDS011;41247;49.736;8.752;2022-12-29T05:40:58;2.08;;;1.17;;
55368;SDS011;41247;49.736;8.752;2022-12-29T05:44:39;2.10;;;0.98;;
55368;SDS011;41247;49.736;8.752;2022-12-29T05:48:20;1.08;;;0.68;;
55368;SDS011;41247;49.736;8.752;2022-12-29T05:52:00;2.53;;;0.90;;
55368;SDS011;41247;49.736;8.752;2022-12-29T05:55:41;2.33;;;0.85;;
55368;SDS011;41247;49.736;8.752;2022-12-29T05:59:26;3.75;;;1.00;;
55368;SDS011;41247;49.736;8.752;2022-12-29T06:03:07;3.30;;;0.90;;
55368;SDS011;41247;49.736;8.752;2022-12-29T06:06:47;2.10;;;1.10;;
55368;SDS011;41247;49.736;8.752;2022-12-29T06:10:28;5.32;;;1.00;;
55368;SDS011;41247;49.736;8.752;2022-12-29T06:14:09;3.47;;;0.95;;
55368;SDS011;41247;49.736;8.752;2022-12-29T06:17:49;7.05;;;1.00;;
55368;SDS011;41247;49.736;8.752;2022-12-29T06:21:30;3.90;;;1.10;;
55368;SDS011;41247;49.736;8.752;2022-12-29T06:25:10;3.63;;;1.00;;
55368;SDS011;41247;49.736;8.752;2022-12-29T06:28:51;2.53;;;1.15;;
55368;SDS011;41247;49.736;8.752;2022-12-29T06:32:32;3.40;;;1.23;;
55368;SDS011;41247;49.736;8.752;2022-12-29T06:36:12;4.22;;;1.35;;
55368;SDS011;41247;49.736;8.752;2022-12-29T06:39:53;3.58;;;1.50;;
55368;SDS011;41247;49.736;8.752;2022-12-29T06:43:34;5.18;;;1.30;;
55368;SDS011;41247;49.736;8.752;2022-12-29T06:47:21;5.55;;;1.27;;
55368;SDS011;41247;49.736;8.752;2022-12-29T06:51:01;3.25;;;1.45;;
55368;SDS011;41247;49.736;8.752;2022-12-29T06:54:42;4.78;;;1.33;;
55368;SDS011;41247;49.736;8.752;2022-12-29T06:58:23;3.63;;;1.17;;
55368;SDS011;41247;49.736;8.752;2022-12-29T07:02:03;6.25;;;1.63;;
55368;SDS011;41247;49.736;8.752;2022-12-29T07:05:44;4.10;;;1.23;;
55368;SDS011;41247;49.736;8.752;2022-12-29T07:09:25;9.32;;;1.25;;
55368;SDS011;41247;49.736;8.752;2022-12-29T07:13:05;3.58;;;1.10;;
55368;SDS011;41247;49.736;8.752;2022-12-29T07:16:46;2.92;;;1.30;;
55368;SDS011;41247;49.736;8.752;2022-12-29T07:20:26;1.88;;;1.33;;
55368;SDS011;41247;49.736;8.752;2022-12-29T07:24:07;6.07;;;1.17;;
55368;SDS011;41247;49.736;8.752;2022-12-29T07:27:49;3.72;;;1.10;;
55368;SDS011;41247;49.736;8.752;2022-12-29T07:31:30;2.67;;;1.30;;
55368;SDS011;41247;49.736;8.752;2022-12-29T07:35:11;2.42;;;1.42;;
55368;SDS011;41247;49.736;8.752;2022-12-29T07:38:51;6.18;;;1.52;;
55368;SDS011;41247;49.736;8.752;2022-12-29T07:42:32;3.63;;;1.40;;
55368;SDS011;41247;49.736;8.752;2022-12-29T07:46:12;4.60;;;1.67;;
55368;SDS011;41247;49.736;8.752;2022-12-29T07:49:53;5.10;;;1.45;;
55368;SDS011;41247;49.736;8.752;2022-12-29T07:53:34;3.83;;;1.38;;
55368;SDS011;41247;49.736;8.752;2022-12-29T07:57:14;2.40;;;1.35;;
55368;SDS011;41247;49.736;8.752;2022-12-29T08:00:55;3.63;;;1.40;;
55368;SDS011;41247;49.736;8.752;2022-12-29T08:04:36;6.05;;;1.70;;
55368;SDS011;41247;49.736;8.752;2022-12-29T08:08:17;4.45;;;1.52;;
55368;SDS011;41247;49.736;8.752;2022-12-29T08:11:58;4.80;;;1.55;;
55368;SDS011;41247;49.736;8.752;2022-12-29T08:15:38;4.43;;;1.45;;
55368;SDS011;41247;49.736;8.752;2022-12-29T08:19:19;5.45;;;1.40;;
55368;SDS011;41247;49.736;8.752;2022-12-29T08:22:59;4.32;;;1.42;;
55368;SDS011;41247;49.736;8.752;2022-12-29T08:26:40;4.03;;;1.63;;
55368;SDS011;41247;49.736;8.752;2022-12-29T08:30:21;5.80;;;1.40;;
55368;SDS011;41247;49.736;8.752;2022-12-29T08:34:01;7.45;;;1.80;;
55368;SDS011;41247;49.736;8.752;2022-12-29T08:37:42;3.55;;;1.40;;
55368;SDS011;41247;49.736;8.752;2022-12-29T08:41:23;5.15;;;1.52;;
55368;SDS011;41247;49.736;8.752;2022-12-29T08:45:03;5.57;;;1.50;;
55368;SDS011;41247;49.736;8.752;2022-12-29T08:48:44;5.53;;;1.85;;
55368;SDS011;41247;49.736;8.752;2022-12-29T08:52:25;8.30;;;1.70;;
55368;SDS011;41247;49.736;8.752;2022-12-29T08:56:06;6.32;;;1.40;;
55368;SDS011;41247;49.736;8.752;2022-12-29T08:59:48;5.15;;;1.80;;
55368;SDS011;41247;49.736;8.752;2022-12-29T09:03:29;4.28;;;2.20;;
55368;SDS011;41247;49.736;8.752;2022-12-29T09:07:10;4.05;;;1.65;;
55368;SDS011;41247;49.736;8.752;2022-12-29T09:10:50;6.72;;;1.98;;
55368;SDS011;41247;49.736;8.752;2022-12-29T09:14:31;4.38;;;2.13;;
55368;SDS011;41247;49.736;8.752;2022-12-29T09:18:12;7.28;;;1.63;;
55368;SDS011;41247;49.736;8.752;2022-12-29T09:21:53;4.45;;;1.70;;
55368;SDS011;41247;49.736;8.752;2022-12-29T09:25:34;3.70;;;2.20;;
55368;SDS011;41247;49.736;8.752;2022-12-29T09:29:14;3.28;;;1.83;;
55368;SDS011;41247;49.736;8.752;2022-12-29T09:32:55;5.30;;;1.63;;
55368;SDS011;41247;49.736;8.752;2022-12-29T09:36:35;2.90;;;1.83;;
55368;SDS011;41247;49.736;8.752;2022-12-29T09:40:24;2.92;;;1.70;;
55368;SDS011;41247;49.736;8.752;2022-12-29T09:48:31;3.58;;;1.85;;
55368;SDS011;41247;49.736;8.752;2022-12-29T09:56:04;8.00;;;2.20;;
55368;SDS011;41247;49.736;8.752;2022-12-29T09:59:55;3.95;;;1.70;;
55368;SDS011;41247;49.736;8.752;2022-12-29T10:03:50;6.18;;;2.25;;
55368;SDS011;41247;49.736;8.752;2022-12-29T10:07:36;4.53;;;2.15;;
55368;SDS011;41247;49.736;8.752;2022-12-29T10:11:45;5.57;;;1.80;;
55368;SDS011;41247;49.736;8.752;2022-12-29T10:16:01;2.97;;;1.50;;
55368;SDS011;41247;49.736;8.752;2022-12-29T10:19:52;2.28;;;1.40;;
55368;SDS011;41247;49.736;8.752;2022-12-29T10:24:06;2.53;;;1.27;;
55368;SDS011;41247;49.736;8.752;2022-12-29T10:27:51;3.65;;;1.40;;
55368;SDS011;41247;49.736;8.752;2022-12-29T10:31:38;2.58;;;1.25;;
55368;SDS011;41247;49.736;8.752;2022-12-29T10:35:26;3.15;;;1.30;;
55368;SDS011;41247;49.736;8.752;2022-12-29T10:39:18;5.32;;;1.52;;
55368;SDS011;41247;49.736;8.752;2022-12-29T10:43:28;3.58;;;1.42;;
55368;SDS011;41247;49.736;8.752;2022-12-29T10:47:35;4.43;;;1.50;;
55368;SDS011;41247;49.736;8.752;2022-12-29T10:55:10;3.47;;;1.50;;
55368;SDS011;41247;49.736;8.752;2022-12-29T10:58:57;5.05;;;1.80;;
55368;SDS011;41247;49.736;8.752;2022-12-29T11:06:59;3.55;;;2.25;;
55368;SDS011;41247;49.736;8.752;2022-12-29T11:10:42;2.85;;;2.00;;
55368;SDS011;41247;49.736;8.752;2022-12-29T11:14:28;3.95;;;1.75;;
55368;SDS011;41247;49.736;8.752;2022-12-29T11:18:18;4.63;;;2.00;;
55368;SDS011;41247;49.736;8.752;2022-12-29T11:22:19;6.90;;;2.00;;
55368;SDS011;41247;49.736;8.752;2022-12-29T11:26:07;4.95;;;2.33;;
55368;SDS011;41247;49.736;8.752;2022-12-29T11:29:59;6.13;;;3.00;;
55368;SDS011;41247;49.736;8.752;2022-12-29T11:33:40;5.88;;;2.13;;
55368;SDS011;41247;49.736;8.752;2022-12-29T11:37:28;6.13;;;3.22;;
55368;SDS011;41247;49.736;8.752;2022-12-29T11:41:22;5.55;;;2.72;;
55368;SDS011;41247;49.736;8.752;2022-12-29T11:45:22;9.25;;;2.80;;
55368;SDS011;41247;49.736;8.752;2022-12-29T11:49:05;6.05;;;2.38;;
55368;SDS011;41247;49.736;8.752;2022-12-29T11:52:46;4.80;;;2.40;;
55368;SDS011;41247;49.736;8.752;2022-12-29T12:00:21;8.93;;;3.28;;
55368;SDS011;41247;49.736;8.752;2022-12-29T12:04:37;5.20;;;2.00;;
55368;SDS011;41247;49.736;8.752;2022-12-29T12:12:41;5.07;;;1.80;;
55368;SDS011;41247;49.736;8.752;2022-12-29T12:16:36;4.80;;;1.73;;
55368;SDS011;41247;49.736;8.752;2022-12-29T12:20:26;4.00;;;1.23;;
55368;SDS011;41247;49.736;8.752;2022-12-29T12:24:34;7.25;;;1.50;;
55368;SDS011;41247;49.736;8.752;2022-12-29T12:28:28;2.58;;;1.35;;
55368;SDS011;41247;49.736;8.752;2022-12-29T12:32:19;3.80;;;1.48;;
55368;SDS011;41247;49.736;8.752;2022-12-29T12:36:14;6.65;;;1.73;;
55368;SDS011;41247;49.736;8.752;2022-12-29T12:44:28;4.00;;;1.60;;
55368;SDS011;41247;49.736;8.752;2022-12-29T13:05:14;6.28;;;1.92;;
55368;SDS011;41247;49.736;8.752;2022-12-29T13:21:42;4.80;;;1.67;;
55368;SDS011;41247;49.736;8.752;2022-12-29T13:25:51;5.35;;;2.50;;
55368;SDS011;41247;49.736;8.752;2022-12-29T13:30:03;2.30;;;1.23;;
55368;SDS011;41247;49.736;8.752;2022-12-29T13:34:04;4.90;;;1.50;;
55368;SDS011;41247;49.736;8.752;2022-12-29T13:41:54;2.50;;;1.10;;
55368;SDS011;41247;49.736;8.752;2022-12-29T13:45:36;2.70;;;0.95;;
55368;SDS011;41247;49.736;8.752;2022-12-29T13:49:19;1.30;;;0.73;;
55368;SDS011;41247;49.736;8.752;2022-12-29T13:53:19;4.28;;;1.10;;
55368;SDS011;41247;49.736;8.752;2022-12-29T14:01:48;2.53;;;1.10;;
55368;SDS011;41247;49.736;8.752;2022-12-29T14:05:35;3.40;;;1.30;;
55368;SDS011;41247;49.736;8.752;2022-12-29T14:13:23;1.83;;;0.85;;
55368;SDS011;41247;49.736;8.752;2022-12-29T14:17:12;1.98;;;0.90;;
55368;SDS011;41247;49.736;8.752;2022-12-29T14:21:00;2.88;;;0.95;;
55368;SDS011;41247;49.736;8.752;2022-12-29T14:24:59;4.05;;;0.98;;
55368;SDS011;41247;49.736;8.752;2022-12-29T14:28:42;3.42;;;1.00;;
55368;SDS011;41247;49.736;8.752;2022-12-29T14:36:20;4.32;;;1.70;;
55368;SDS011;41247;49.736;8.752;2022-12-29T14:43:57;3.05;;;1.25;;
55368;SDS011;41247;49.736;8.752;2022-12-29T14:47:59;6.07;;;1.80;;
55368;SDS011;41247;49.736;8.752;2022-12-29T14:51:40;6.78;;;1.15;;
55368;SDS011;41247;49.736;8.752;2022-12-29T14:59:20;2.05;;;1.08;;
55368;SDS011;41247;49.736;8.752;2022-12-29T15:07:02;4.35;;;0.90;;
55368;SDS011;41247;49.736;8.752;2022-12-29T15:10:50;3.17;;;0.82;;
55368;SDS011;41247;49.736;8.752;2022-12-29T15:18:38;2.03;;;0.60;;
55368;SDS011;41247;49.736;8.752;2022-12-29T15:22:19;5.13;;;0.70;;
55368;SDS011;41247;49.736;8.752;2022-12-29T15:26:04;5.13;;;0.80;;
55368;SDS011;41247;49.736;8.752;2022-12-29T15:29:47;1.45;;;0.43;;
55368;SDS011;41247;49.736;8.752;2022-12-29T15:33:38;3.53;;;0.50;;
55368;SDS011;41247;49.736;8.752;2022-12-29T15:37:26;6.47;;;0.95;;
55368;SDS011;41247;49.736;8.752;2022-12-29T15:41:18;5.20;;;0.80;;
55368;SDS011;41247;49.736;8.752;2022-12-29T15:45:05;5.38;;;1.08;;
55368;SDS011;41247;49.736;8.752;2022-12-29T15:48:50;4.82;;;1.33;;
55368;SDS011;41247;49.736;8.752;2022-12-29T15:52:31;5.82;;;1.30;;
55368;SDS011;41247;49.736;8.752;2022-12-29T15:56:13;4.68;;;0.95;;
55368;SDS011;41247;49.736;8.752;2022-12-29T15:59:54;3.03;;;0.90;;
55368;SDS011;41247;49.736;8.752;2022-12-29T16:03:35;4.15;;;0.75;;
55368;SDS011;41247;49.736;8.752;2022-12-29T16:07:32;7.05;;;1.33;;
55368;SDS011;41247;49.736;8.752;2022-12-29T16:11:23;3.70;;;1.10;;
55368;SDS011;41247;49.736;8.752;2022-12-29T16:15:12;4.00;;;1.00;;
55368;SDS011;41247;49.736;8.752;2022-12-29T16:18:54;8.85;;;1.15;;
55368;SDS011;41247;49.736;8.752;2022-12-29T16:22:39;6.38;;;1.55;;
55368;SDS011;41247;49.736;8.752;2022-12-29T16:26:22;9.45;;;1.10;;
55368;SDS011;41247;49.736;8.752;2022-12-29T16:30:05;7.05;;;0.98;;
55368;SDS011;41247;49.736;8.752;2022-12-29T16:34:21;6.07;;;1.17;;
55368;SDS011;41247;49.736;8.752;2022-12-29T16:42:00;3.55;;;0.80;;
55368;SDS011;41247;49.736;8.752;2022-12-29T16:49:27;8.50;;;1.30;;
55368;SDS011;41247;49.736;8.752;2022-12-29T16:57:03;10.98;;;1.17;;
55368;SDS011;41247;49.736;8.752;2022-12-29T17:00:45;6.38;;;1.00;;
55368;SDS011;41247;49.736;8.752;2022-12-29T17:04:26;8.05;;;0.88;;
55368;SDS011;41247;49.736;8.752;2022-12-29T17:08:27;7.63;;;1.40;;
55368;SDS011;41247;49.736;8.752;2022-12-29T17:12:07;9.13;;;1.50;;
55368;SDS011;41247;49.736;8.752;2022-12-29T17:15:58;8.48;;;1.10;;
55368;SDS011;41247;49.736;8.752;2022-12-29T17:19:39;6.65;;;1.25;;
55368;SDS011;41247;49.736;8.752;2022-12-29T17:23:32;7.25;;;1.60;;
55368;SDS011;41247;49.736;8.752;2022-12-29T17:31:17;7.70;;;1.50;;
55368;SDS011;41247;49.736;8.752;2022-12-29T17:34:58;8.55;;;1.27;;
55368;SDS011;41247;49.736;8.752;2022-12-29T17:38:39;12.23;;;2.17;;
55368;SDS011;41247;49.736;8.752;2022-12-29T17:42:19;7.65;;;2.42;;
55368;SDS011;41247;49.736;8.752;2022-12-29T17:46:00;8.32;;;1.42;;
55368;SDS011;41247;49.736;8.752;2022-12-29T17:49:41;8.77;;;1.35;;
55368;SDS011;41247;49.736;8.752;2022-12-29T17:53:23;11.50;;;1.80;;
55368;SDS011;41247;49.736;8.752;2022-12-29T17:57:07;10.30;;;1.70;;
55368;SDS011;41247;49.736;8.752;2022-12-29T18:00:53;12.40;;;1.50;;
55368;SDS011;41247;49.736;8.752;2022-12-29T18:04:37;5.78;;;1.20;;
55368;SDS011;41247;49.736;8.752;2022-12-29T18:08:17;9.98;;;2.05;;
55368;SDS011;41247;49.736;8.752;2022-12-29T18:11:58;10.15;;;1.95;;
55368;SDS011;41247;49.736;8.752;2022-12-29T18:15:38;11.48;;;2.17;;
55368;SDS011;41247;49.736;8.752;2022-12-29T18:19:19;11.35;;;1.58;;
55368;SDS011;41247;49.736;8.752;2022-12-29T18:23:00;10.10;;;1.38;;
55368;SDS011;41247;49.736;8.752;2022-12-29T18:26:40;7.05;;;1.73;;
55368;SDS011;41247;49.736;8.752;2022-12-29T18:30:21;15.00;;;3.53;;
55368;SDS011;41247;49.736;8.752;2022-12-29T18:34:03;6.50;;;1.83;;
55368;SDS011;41247;49.736;8.752;2022-12-29T18:37:52;7.45;;;1.98;;
55368;SDS011;41247;49.736;8.752;2022-12-29T18:41:33;10.10;;;1.75;;
55368;SDS011;41247;49.736;8.752;2022-12-29T18:45:18;7.32;;;1.48;;
55368;SDS011;41247;49.736;8.752;2022-12-29T18:49:01;7.38;;;1.70;;
55368;SDS011;41247;49.736;8.752;2022-12-29T18:52:42;6.25;;;1.20;;
55368;SDS011;41247;49.736;8.752;2022-12-29T18:56:23;13.80;;;1.80;;
55368;SDS011;41247;49.736;8.752;2022-12-29T19:00:04;7.68;;;1.48;;
55368;SDS011;41247;49.736;8.752;2022-12-29T19:03:46;7.95;;;1.60;;
55368;SDS011;41247;49.736;8.752;2022-12-29T19:07:26;11.02;;;1.95;;
55368;SDS011;41247;49.736;8.752;2022-12-29T19:11:07;10.93;;;1.77;;
55368;SDS011;41247;49.736;8.752;2022-12-29T19:14:48;10.50;;;1.95;;
55368;SDS011;41247;49.736;8.752;2022-12-29T19:18:28;11.00;;;2.17;;
55368;SDS011;41247;49.736;8.752;2022-12-29T19:22:09;10.32;;;1.70;;
55368;SDS011;41247;49.736;8.752;2022-12-29T19:25:50;9.05;;;2.00;;
55368;SDS011;41247;49.736;8.752;2022-12-29T19:29:33;13.13;;;2.10;;
55368;SDS011;41247;49.736;8.752;2022-12-29T19:33:14;11.13;;;2.20;;
55368;SDS011;41247;49.736;8.752;2022-12-29T19:36:55;16.95;;;1.98;;
55368;SDS011;41247;49.736;8.752;2022-12-29T19:40:36;13.05;;;2.67;;
55368;SDS011;41247;49.736;8.752;2022-12-29T19:44:24;11.10;;;1.63;;
55368;SDS011;41247;49.736;8.752;2022-12-29T19:48:05;10.48;;;2.42;;
55368;SDS011;41247;49.736;8.752;2022-12-29T19:51:47;8.68;;;1.40;;
55368;SDS011;41247;49.736;8.752;2022-12-29T19:55:27;14.23;;;1.98;;
55368;SDS011;41247;49.736;8.752;2022-12-29T19:59:08;11.75;;;2.10;;
55368;SDS011;41247;49.736;8.752;2022-12-29T20:02:49;9.68;;;2.20;;
55368;SDS011;41247;49.736;8.752;2022-12-29T20:06:29;10.48;;;2.28;;
55368;SDS011;41247;49.736;8.752;2022-12-29T20:10:10;7.57;;;1.75;;
55368;SDS011;41247;49.736;8.752;2022-12-29T20:13:50;6.57;;;1.88;;
55368;SDS011;41247;49.736;8.752;2022-12-29T20:17:31;11.15;;;2.20;;
55368;SDS011;41247;49.736;8.752;2022-12-29T20:21:18;6.35;;;2.00;;
55368;SDS011;41247;49.736;8.752;2022-12-29T20:25:01;5.97;;;1.70;;
55368;SDS011;41247;49.736;8.752;2022-12-29T20:28:42;12.35;;;2.75;;
55368;SDS011;41247;49.736;8.752;2022-12-29T20:32:22;9.05;;;1.92;;
55368;SDS011;41247;49.736;8.752;2022-12-29T20:36:04;10.00;;;1.98;;
55368;SDS011;41247;49.736;8.752;2022-12-29T20:39:49;7.50;;;1.83;;
55368;SDS011;41247;49.736;8.752;2022-12-29T20:43:30;8.38;;;1.50;;
55368;SDS011;41247;49.736;8.752;2022-12-29T20:47:10;7.43;;;1.50;;
55368;SDS011;41247;49.736;8.752;2022-12-29T20:50:51;13.65;;;2.08;;
55368;SDS011;41247;49.736;8.752;2022-12-29T20:54:32;9.77;;;1.98;;
55368;SDS011;41247;49.736;8.752;2022-12-29T20:58:13;15.20;;;1.75;;
55368;SDS011;41247;49.736;8.752;2022-12-29T21:01:54;9.57;;;1.63;;
55368;SDS011;41247;49.736;8.752;2022-12-29T21:05:35;7.68;;;1.35;;
55368;SDS011;41247;49.736;8.752;2022-12-29T21:09:17;11.73;;;1.60;;
55368;SDS011;41247;49.736;8.752;2022-12-29T21:12:58;12.45;;;1.65;;
55368;SDS011;41247;49.736;8.752;2022-12-29T21:16:38;10.20;;;2.08;;
55368;SDS011;41247;49.736;8.752;2022-12-29T21:20:19;6.78;;;1.75;;
55368;SDS011;41247;49.736;8.752;2022-12-29T21:23:59;13.65;;;1.80;;
55368;SDS011;41247;49.736;8.752;2022-12-29T21:27:40;10.98;;;1.92;;
55368;SDS011;41247;49.736;8.752;2022-12-29T21:31:27;11.27;;;1.85;;
55368;SDS011;41247;49.736;8.752;2022-12-29T21:35:13;10.50;;;1.85;;
55368;SDS011;41247;49.736;8.752;2022-12-29T21:38:54;10.60;;;1.63;;
55368;SDS011;41247;49.736;8.752;2022-12-29T21:42:35;11.57;;;1.90;;
55368;SDS011;41247;49.736;8.752;2022-12-29T21:46:17;7.90;;;1.58;;
55368;SDS011;41247;49.736;8.752;2022-12-29T21:49:57;9.48;;;1.80;;
55368;SDS011;41247;49.736;8.752;2022-12-29T21:53:39;9.65;;;2.30;;
55368;SDS011;41247;49.736;8.752;2022-12-29T22:01:02;10.10;;;2.10;;
55368;SDS011;41247;49.736;8.752;2022-12-29T22:04:43;14.90;;;2.20;;
55368;SDS011;41247;49.736;8.752;2022-12-29T22:08:24;10.02;;;1.80;;
55368;SDS011;41247;49.736;8.752;2022-12-29T22:12:04;10.63;;;2.40;;
55368;SDS011;41247;49.736;8.752;2022-12-29T22:15:45;9.35;;;2.45;;
55368;SDS011;41247;49.736;8.752;2022-12-29T22:19:25;10.75;;;2.30;;
55368;SDS011;41247;49.736;8.752;2022-12-29T22:23:06;9.18;;;1.75;;
55368;SDS011;41247;49.736;8.752;2022-12-29T22:26:47;9.55;;;2.53;;
55368;SDS011;41247;49.736;8.752;2022-12-29T22:30:27;10.48;;;3.25;;
55368;SDS011;41247;49.736;8.752;2022-12-29T22:34:08;10.57;;;2.70;;
55368;SDS011;41247;49.736;8.752;2022-12-29T22:37:48;16.92;;;3.33;;
55368;SDS011;41247;49.736;8.752;2022-12-29T22:41:29;11.38;;;3.22;;
55368;SDS011;41247;49.736;8.752;2022-12-29T22:45:10;12.95;;;3.65;;
55368;SDS011;41247;49.736;8.752;2022-12-29T22:48:51;14.98;;;2.80;;
55368;SDS011;41247;49.736;8.752;2022-12-29T22:52:31;15.00;;;3.67;;
55368;SDS011;41247;49.736;8.752;2022-12-29T22:56:12;12.80;;;3.70;;
55368;SDS011;41247;49.736;8.752;2022-12-29T22:59:53;18.40;;;3.83;;
55368;SDS011;41247;49.736;8.752;2022-12-29T23:03:34;12.30;;;3.25;;
55368;SDS011;41247;49.736;8.752;2022-12-29T23:07:14;13.98;;;3.65;;
55368;SDS011;41247;49.736;8.752;2022-12-29T23:10:55;11.73;;;3.63;;
55368;SDS011;41247;49.736;8.752;2022-12-29T23:14:36;16.50;;;3.75;;
55368;SDS011;41247;49.736;8.752;2022-12-29T23:18:16;15.38;;;3.40;;
55368;SDS011;41247;49.736;8.752;2022-12-29T23:21:57;12.15;;;3.22;;
55368;SDS011;41247;49.736;8.752;2022-12-29T23:25:37;16.23;;;3.08;;
55368;SDS011;41247;49.736;8.752;2022-12-29T23:29:18;13.52;;;2.90;;
55368;SDS011;41247;49.736;8.752;2022-12-29T23:32:59;12.05;;;3.05;;
55368;SDS011;41247;49.736;8.752;2022-12-29T23:36:40;11.45;;;2.47;;
55368;SDS011;41247;49.736;8.752;2022-12-29T23:40:20;16.40;;;2.92;;
55368;SDS011;41247;49.736;8.752;2022-12-29T23:44:01;15.15;;;2.80;;
55368;SDS011;41247;49.736;8.752;2022-12-29T23:47:42;15.32;;;3.05;;
55368;SDS011;41247;49.736;8.752;2022-12-29T23:51:22;15.95;;;2.67;;
55368;SDS011;41247;49.736;8.752;2022-12-29T23:55:03;16.20;;;2.70;;
55368;SDS011;41247;49.736;8.752;2022-12-29T23:58:44;13.60;;;2.55;;
